createdAt,value
2022-12-15T00:00:23.679Z,26.83
2022-12-15T00:05:44.231Z,39.63
2022-12-15T00:11:12.839Z,37.85
2022-12-15T00:16:33.429Z,35.58
2022-12-15T00:21:53.747Z,40.50
2022-12-15T00:27:14.084Z,37.90
2022-12-15T00:32:34.380Z,39.97
2022-12-15T00:37:54.720Z,34.47
2022-12-15T00:42:56.738Z,30.60
2022-12-15T00:47:58.581Z,31.67
2022-12-15T00:53:18.997Z,28.77
2022-12-15T00:58:39.456Z,28.42
2022-12-15T01:03:59.832Z,41.38
2022-12-15T01:09:21.387Z,35.55
2022-12-15T01:14:42.204Z,32.47
2022-12-15T01:20:02.345Z,30.85
2022-12-15T01:25:06.323Z,33.45
2022-12-15T01:30:09.716Z,33.10
2022-12-15T01:35:12.071Z,30.92
2022-12-15T01:40:36.193Z,24.10
2022-12-15T01:45:48.922Z,28.48
2022-12-15T01:51:13.925Z,30.77
2022-12-15T01:56:17.924Z,31.20
2022-12-15T02:01:19.950Z,33.80
2022-12-15T02:06:22.653Z,28.10
2022-12-15T02:11:30.366Z,31.08
2022-12-15T02:16:58.307Z,29.88
2022-12-15T02:22:18.294Z,25.85
2022-12-15T02:27:44.423Z,31.38
2022-12-15T02:33:21.712Z,26.73
2022-12-15T02:38:37.182Z,30.30
2022-12-15T02:43:39.713Z,32.67
2022-12-15T02:49:08.040Z,29.55
2022-12-15T02:54:31.733Z,31.23
2022-12-15T02:59:33.406Z,28.95
2022-12-15T03:04:35.463Z,32.05
2022-12-15T03:09:37.303Z,30.20
2022-12-15T03:14:39.278Z,34.10
2022-12-15T03:19:41.293Z,24.23
2022-12-15T03:24:43.557Z,29.38
2022-12-15T03:29:45.561Z,28.67
2022-12-15T03:34:47.590Z,30.23
2022-12-15T03:39:49.768Z,24.70
2022-12-15T03:44:51.625Z,27.27
2022-12-15T03:49:53.333Z,20.95
2022-12-15T03:54:55.132Z,26.98
2022-12-15T03:59:57.106Z,29.10
2022-12-15T04:04:59.162Z,28.23
2022-12-15T04:10:00.998Z,27.02
2022-12-15T04:15:02.882Z,25.80
2022-12-15T04:20:11.831Z,27.60
2022-12-15T04:25:36.046Z,22.70
2022-12-15T04:31:01.162Z,23.48
2022-12-15T04:36:30.775Z,22.50
2022-12-15T04:41:54.727Z,30.75
2022-12-15T04:47:15.237Z,24.25
2022-12-15T04:52:38.449Z,25.92
2022-12-15T04:57:59.006Z,23.27
2022-12-15T05:03:26.634Z,20.92
2022-12-15T05:08:47.208Z,24.63
2022-12-15T05:14:10.909Z,26.15
2022-12-15T05:19:31.119Z,20.88
2022-12-15T05:24:51.996Z,24.23
2022-12-15T05:30:12.455Z,21.75
2022-12-15T05:35:14.556Z,22.35
2022-12-15T05:40:22.363Z,24.95
2022-12-15T05:45:24.328Z,25.75
2022-12-15T05:50:26.336Z,18.63
2022-12-15T05:55:28.333Z,20.90
2022-12-15T06:00:30.364Z,20.65
2022-12-15T06:05:32.264Z,19.80
2022-12-15T06:10:34.068Z,20.17
2022-12-15T06:15:39.164Z,18.42
2022-12-15T06:20:41.058Z,18.42
2022-12-15T06:25:42.898Z,21.27
2022-12-15T06:30:44.723Z,22.52
2022-12-15T06:35:46.569Z,20.15
2022-12-15T06:41:01.902Z,18.48
2022-12-15T06:46:04.586Z,13.57
2022-12-15T06:51:13.324Z,17.48
2022-12-15T06:56:23.204Z,13.13
2022-12-15T07:01:28.279Z,16.65
2022-12-15T07:06:37.706Z,18.90
2022-12-15T07:11:40.725Z,24.80
2022-12-15T07:16:42.746Z,20.05
2022-12-15T07:21:45.175Z,16.77
2022-12-15T07:26:49.081Z,16.88
2022-12-15T07:31:51.140Z,13.40
2022-12-15T07:36:53.216Z,16.30
2022-12-15T07:41:55.045Z,19.40
2022-12-15T07:46:56.997Z,19.65
2022-12-15T07:51:58.982Z,16.80
2022-12-15T07:57:02.766Z,17.85
2022-12-15T08:02:05.205Z,16.92
2022-12-15T08:07:09.183Z,18.67
2022-12-15T08:12:10.940Z,13.75
2022-12-15T08:17:13.309Z,15.00
2022-12-15T08:22:15.748Z,15.40
2022-12-15T08:27:17.620Z,15.18
2022-12-15T08:32:19.562Z,16.75
2022-12-15T08:37:21.449Z,18.05
2022-12-15T08:42:48.439Z,12.40
2022-12-15T08:47:50.264Z,13.50
2022-12-15T08:53:21.510Z,17.48
2022-12-15T08:58:14.548Z,20.63
2022-12-15T09:03:16.437Z,19.55
2022-12-15T09:08:18.602Z,15.25
2022-12-15T09:13:21.016Z,15.48
2022-12-15T09:18:22.936Z,15.88
2022-12-15T09:23:25.095Z,10.80
2022-12-15T09:28:28.190Z,14.15
2022-12-15T09:33:30.593Z,15.20
2022-12-15T09:38:40.553Z,12.93
2022-12-15T09:44:05.428Z,12.90
2022-12-15T09:49:27.885Z,11.80
2022-12-15T09:54:34.081Z,17.42
2022-12-15T09:59:44.563Z,14.40
2022-12-15T10:04:55.793Z,11.20
2022-12-15T10:09:58.248Z,10.20
2022-12-15T10:15:23.186Z,12.60
2022-12-15T10:20:32.335Z,13.32
2022-12-15T10:25:34.214Z,9.05
2022-12-15T10:30:42.778Z,9.00
2022-12-15T10:35:44.861Z,11.05
2022-12-15T10:40:58.465Z,9.93
2022-12-15T10:46:19.020Z,8.65
2022-12-15T10:51:37.277Z,14.98
2022-12-15T10:56:57.456Z,8.48
2022-12-15T11:02:24.474Z,10.63
2022-12-15T11:07:39.206Z,7.32
2022-12-15T11:12:58.335Z,17.52
2022-12-15T11:18:22.159Z,14.02
2022-12-15T11:23:50.340Z,15.80
2022-12-15T11:39:16.419Z,15.48
2022-12-15T11:44:28.078Z,16.63
2022-12-15T11:50:01.838Z,14.40
2022-12-15T11:55:29.548Z,14.75
2022-12-15T12:00:42.603Z,11.18
2022-12-15T12:05:59.700Z,14.30
2022-12-15T12:11:29.134Z,16.17
2022-12-15T12:16:49.250Z,18.35
2022-12-15T12:21:59.178Z,14.63
2022-12-15T12:27:09.018Z,14.68
2022-12-15T12:32:40.609Z,12.63
2022-12-15T12:37:51.551Z,10.35
2022-12-15T12:42:54.888Z,13.48
2022-12-15T12:48:03.360Z,19.23
2022-12-15T12:53:05.375Z,23.27
2022-12-15T12:58:34.324Z,14.20
2022-12-15T13:03:39.127Z,22.10
2022-12-15T13:08:52.864Z,13.77
2022-12-15T13:13:56.109Z,15.18
2022-12-15T13:19:04.795Z,15.50
2022-12-15T13:24:30.858Z,14.68
2022-12-15T13:29:34.253Z,13.98
2022-12-15T13:34:40.880Z,17.88
2022-12-15T13:39:55.629Z,17.92
2022-12-15T13:45:13.834Z,17.85
2022-12-15T13:50:29.983Z,15.55
2022-12-15T13:55:37.322Z,22.00
2022-12-15T14:00:48.603Z,17.88
2022-12-15T14:05:55.552Z,15.90
2022-12-15T14:11:22.537Z,20.50
2022-12-15T14:16:27.485Z,15.32
2022-12-15T14:21:30.494Z,18.70
2022-12-15T14:26:35.396Z,16.58
2022-12-15T14:31:42.853Z,19.90
2022-12-15T14:36:46.242Z,19.13
2022-12-15T14:41:54.630Z,29.80
2022-12-15T14:46:57.180Z,20.10
2022-12-15T14:52:03.228Z,19.23
2022-12-15T14:57:15.880Z,24.88
2022-12-15T15:02:23.087Z,23.73
2022-12-15T15:07:26.834Z,27.05
2022-12-15T15:12:44.963Z,24.10
2022-12-15T15:17:51.174Z,16.65
2022-12-15T15:23:08.825Z,21.05
2022-12-15T15:28:21.879Z,20.90
2022-12-15T15:33:25.336Z,21.02
2022-12-15T15:38:36.207Z,22.65
2022-12-15T15:43:38.424Z,22.20
2022-12-15T15:48:50.429Z,38.17
2022-12-15T15:53:58.128Z,38.92
2022-12-15T15:59:09.963Z,32.22
2022-12-15T16:04:14.905Z,38.17
2022-12-15T16:09:17.306Z,42.75
2022-12-15T16:14:19.247Z,43.92
2022-12-15T16:19:21.263Z,50.05
2022-12-15T16:24:23.134Z,45.80
2022-12-15T16:29:33.976Z,48.28
2022-12-15T16:34:36.635Z,37.47
2022-12-15T16:39:49.399Z,38.90
2022-12-15T16:44:51.394Z,41.75
2022-12-15T16:49:53.347Z,43.58
2022-12-15T16:54:57.147Z,39.47
2022-12-15T16:59:59.045Z,42.95
2022-12-15T17:05:00.801Z,36.63
2022-12-15T17:10:03.583Z,34.63
2022-12-15T17:15:16.878Z,36.67
2022-12-15T17:20:30.508Z,33.35
2022-12-15T17:31:06.736Z,37.90
2022-12-15T17:36:17.667Z,35.97
2022-12-15T17:47:58.146Z,22.33
2022-12-15T17:53:03.364Z,20.08
2022-12-15T17:58:35.735Z,19.48
2022-12-15T18:03:40.810Z,16.70
2022-12-15T18:08:45.764Z,17.67
2022-12-15T18:13:52.408Z,20.45
2022-12-15T18:18:56.737Z,15.17
2022-12-15T18:24:00.377Z,18.92
2022-12-15T18:29:15.316Z,21.55
2022-12-15T18:34:22.939Z,19.27
2022-12-15T18:39:27.190Z,16.55
2022-12-15T18:44:32.222Z,16.48
2022-12-15T18:49:37.484Z,25.42
2022-12-15T18:54:45.619Z,20.92
2022-12-15T18:59:47.444Z,17.92
2022-12-15T19:04:49.495Z,19.17
2022-12-15T19:09:51.534Z,28.45
2022-12-15T19:14:55.165Z,20.33
2022-12-15T19:20:17.564Z,29.00
2022-12-15T19:25:25.834Z,21.13
2022-12-15T19:30:30.585Z,23.67
2022-12-15T19:35:33.913Z,27.40
2022-12-15T19:40:37.795Z,21.85
2022-12-15T19:45:39.622Z,30.45
2022-12-15T19:50:42.616Z,33.53
2022-12-15T19:55:44.596Z,33.25
2022-12-15T20:00:46.497Z,28.00
2022-12-15T20:05:50.978Z,33.38
2022-12-15T20:10:54.070Z,30.80
2022-12-15T20:15:56.291Z,27.23
2022-12-15T20:20:59.464Z,31.63
2022-12-15T20:26:01.375Z,32.38
2022-12-15T20:31:03.647Z,24.85
2022-12-15T20:36:13.311Z,30.20
2022-12-15T20:41:25.134Z,32.60
2022-12-15T20:46:36.071Z,33.58
2022-12-15T20:51:38.224Z,42.97
2022-12-15T20:56:40.128Z,40.53
2022-12-15T21:01:43.325Z,53.28
2022-12-15T21:06:47.606Z,46.63
2022-12-15T21:11:55.187Z,42.75
2022-12-15T21:16:58.149Z,52.30
2022-12-15T21:22:01.066Z,46.17
2022-12-15T21:27:04.209Z,53.55
2022-12-15T21:32:06.138Z,45.15
2022-12-15T21:37:25.717Z,60.80
2022-12-15T21:42:27.813Z,47.17
2022-12-15T21:47:52.080Z,63.85
2022-12-15T21:52:54.543Z,48.38
2022-12-15T21:57:57.471Z,44.08
2022-12-15T22:02:59.316Z,48.63
2022-12-15T22:08:13.088Z,40.97
2022-12-15T22:13:20.660Z,44.90
2022-12-15T22:23:25.467Z,54.05
2022-12-15T22:28:28.708Z,47.55
2022-12-15T22:33:31.764Z,52.22
2022-12-15T22:38:34.954Z,50.10
2022-12-15T22:43:41.637Z,47.55
2022-12-15T22:48:47.437Z,42.50
2022-12-15T22:53:49.288Z,53.70
2022-12-15T22:59:08.569Z,53.58
2022-12-15T23:04:10.604Z,50.20
2022-12-15T23:09:12.474Z,57.85
2022-12-15T23:14:16.842Z,53.67
2022-12-15T23:19:24.375Z,55.22
2022-12-15T23:29:29.536Z,50.72
2022-12-15T23:34:31.713Z,60.95
2022-12-15T23:39:34.878Z,56.65
2022-12-15T23:44:37.749Z,57.15
2022-12-15T23:49:39.984Z,56.17
2022-12-15T23:54:43.363Z,63.10
2022-12-15T23:59:45.088Z,59.42
